createdAt,value
2023-03-04T00:02:54.441Z,31.98
2023-03-04T00:08:10.290Z,32.67
2023-03-04T00:13:26.480Z,41.03
2023-03-04T00:18:42.126Z,25.48
2023-03-04T00:23:57.471Z,24.17
2023-03-04T00:29:13.534Z,25.15
2023-03-04T00:34:30.738Z,28.58
2023-03-04T00:39:48.152Z,28.63
2023-03-04T00:45:05.432Z,27.80
2023-03-04T00:50:21.311Z,27.60
2023-03-04T00:55:37.705Z,26.13
2023-03-04T01:00:53.562Z,29.38
2023-03-04T01:06:09.944Z,25.23
2023-03-04T01:11:25.985Z,30.42
2023-03-04T01:16:41.976Z,26.95
2023-03-04T01:21:57.998Z,34.88
2023-03-04T01:27:13.599Z,30.90
2023-03-04T01:32:29.430Z,30.83
2023-03-04T01:37:45.480Z,29.40
2023-03-04T01:43:01.095Z,24.70
2023-03-04T01:48:21.454Z,29.08
2023-03-04T01:53:37.138Z,30.40
2023-03-04T01:59:11.880Z,28.42
2023-03-04T02:04:31.499Z,27.02
2023-03-04T02:09:47.189Z,21.45
2023-03-04T02:15:03.427Z,35.15
2023-03-04T02:20:45.617Z,59.03
2023-03-04T02:26:22.510Z,35.60
2023-03-04T02:31:50.158Z,29.95
2023-03-04T02:37:10.818Z,30.83
2023-03-04T02:42:26.551Z,24.67
2023-03-04T02:47:42.420Z,28.45
2023-03-04T02:52:58.432Z,24.52
2023-03-04T02:58:15.484Z,23.23
2023-03-04T03:03:31.331Z,27.63
2023-03-04T03:08:47.227Z,25.83
2023-03-04T03:14:03.854Z,27.95
2023-03-04T03:19:19.738Z,27.10
2023-03-04T03:24:35.973Z,18.35
2023-03-04T03:29:51.706Z,19.85
2023-03-04T03:35:07.855Z,19.17
2023-03-04T03:40:23.562Z,19.17
2023-03-04T03:45:39.481Z,23.75
2023-03-04T03:50:55.342Z,20.33
2023-03-04T03:56:11.157Z,23.05
2023-03-04T04:01:27.076Z,29.58
2023-03-04T04:06:43.178Z,40.13
2023-03-04T04:11:59.095Z,36.70
2023-03-04T04:17:15.118Z,31.63
2023-03-04T04:22:30.954Z,21.17
2023-03-04T04:27:46.902Z,25.80
2023-03-04T04:33:05.031Z,28.70
2023-03-04T04:38:20.659Z,22.80
2023-03-04T04:43:36.087Z,21.52
2023-03-04T04:48:51.372Z,19.30
2023-03-04T04:54:07.923Z,21.60
2023-03-04T04:59:24.006Z,20.55
2023-03-04T05:04:39.800Z,21.67
2023-03-04T05:09:55.651Z,19.35
2023-03-04T05:15:12.079Z,22.27
2023-03-04T05:20:28.032Z,25.88
2023-03-04T05:25:44.155Z,17.40
2023-03-04T05:31:00.368Z,15.90
2023-03-04T05:36:16.449Z,14.38
2023-03-04T05:41:32.217Z,25.77
2023-03-04T05:46:48.133Z,20.70
2023-03-04T05:52:04.047Z,14.45
2023-03-04T05:57:19.894Z,20.23
2023-03-04T06:02:36.900Z,15.30
2023-03-04T06:07:52.932Z,16.23
2023-03-04T06:13:09.807Z,25.08
2023-03-04T06:18:28.017Z,14.05
2023-03-04T06:23:45.513Z,22.58
2023-03-04T06:29:01.252Z,15.20
2023-03-04T06:34:17.269Z,29.55
2023-03-04T06:39:33.616Z,17.48
2023-03-04T06:44:50.102Z,18.40
2023-03-04T06:50:06.083Z,11.82
2023-03-04T06:55:21.942Z,16.75
2023-03-04T07:00:37.887Z,23.85
2023-03-04T07:05:53.753Z,17.52
2023-03-04T07:11:09.885Z,13.30
2023-03-04T07:16:25.674Z,12.63
2023-03-04T07:21:41.629Z,15.40
2023-03-04T07:26:57.536Z,19.35
2023-03-04T07:32:13.149Z,15.90
2023-03-04T07:37:28.906Z,18.63
2023-03-04T07:42:45.084Z,14.18
2023-03-04T07:48:00.768Z,20.73
2023-03-04T07:53:16.566Z,14.68
2023-03-04T07:58:32.959Z,13.63
2023-03-04T08:03:49.096Z,13.98
2023-03-04T08:09:06.863Z,17.05
2023-03-04T08:14:22.700Z,10.75
2023-03-04T08:19:38.163Z,12.27
2023-03-04T08:24:53.893Z,22.63
2023-03-04T08:30:10.056Z,16.90
2023-03-04T08:35:25.554Z,17.42
2023-03-04T08:40:41.464Z,16.08
2023-03-04T08:45:56.916Z,16.02
2023-03-04T08:51:15.117Z,14.00
2023-03-04T08:56:30.495Z,12.32
2023-03-04T09:01:46.063Z,18.67
2023-03-04T09:07:02.161Z,15.07
2023-03-04T09:12:17.465Z,11.98
2023-03-04T09:17:33.291Z,11.07
2023-03-04T09:22:48.878Z,10.98
2023-03-04T09:28:05.556Z,14.02
2023-03-04T09:33:21.227Z,8.02
2023-03-04T09:38:38.817Z,13.32
2023-03-04T09:43:56.275Z,17.40
2023-03-04T09:49:14.128Z,9.70
2023-03-04T09:55:04.313Z,10.90
2023-03-04T10:00:25.533Z,8.80
2023-03-04T10:06:05.013Z,11.80
2023-03-04T10:11:40.847Z,12.68
2023-03-04T10:17:19.934Z,13.43
2023-03-04T10:22:45.878Z,14.85
2023-03-04T10:28:04.959Z,10.23
2023-03-04T10:33:23.301Z,14.40
2023-03-04T10:38:41.963Z,16.55
2023-03-04T10:44:09.954Z,17.25
2023-03-04T10:49:27.385Z,18.55
2023-03-04T10:54:52.601Z,15.63
2023-03-04T11:00:24.009Z,12.68
2023-03-04T11:05:39.364Z,12.95
2023-03-04T11:10:55.037Z,24.77
2023-03-04T11:16:31.165Z,14.35
2023-03-04T11:21:48.440Z,10.25
2023-03-04T11:27:08.368Z,13.38
2023-03-04T11:32:39.988Z,15.53
2023-03-04T11:38:21.112Z,6.05
2023-03-04T11:43:39.371Z,9.18
2023-03-04T11:49:07.395Z,11.55
2023-03-04T11:54:40.987Z,7.55
2023-03-04T12:00:16.834Z,19.88
2023-03-04T12:05:39.658Z,20.48
2023-03-04T12:11:11.683Z,8.52
2023-03-04T12:17:04.639Z,6.47
2023-03-04T12:22:28.854Z,9.73
2023-03-04T12:28:16.194Z,6.90
2023-03-04T12:33:40.665Z,13.45
2023-03-04T12:39:00.718Z,3.78
2023-03-04T12:44:21.097Z,8.18
2023-03-04T12:49:49.019Z,12.93
2023-03-04T12:55:15.465Z,10.13
2023-03-04T13:00:52.254Z,19.65
2023-03-04T13:06:36.666Z,7.22
2023-03-04T13:11:54.739Z,9.40
2023-03-04T13:17:42.122Z,11.80
2023-03-04T13:23:22.879Z,24.10
2023-03-04T13:28:38.954Z,7.78
2023-03-04T13:33:58.511Z,5.85
2023-03-04T13:39:16.983Z,14.68
2023-03-04T13:44:45.075Z,18.67
2023-03-04T13:50:24.336Z,13.15
2023-03-04T13:55:43.628Z,5.88
2023-03-04T14:01:00.093Z,14.27
2023-03-04T14:06:20.374Z,21.98
2023-03-04T14:11:43.187Z,12.23
2023-03-04T14:17:04.734Z,10.48
2023-03-04T14:22:28.706Z,10.38
2023-03-04T14:27:45.499Z,13.77
2023-03-04T14:33:01.458Z,11.98
2023-03-04T14:38:33.402Z,7.05
2023-03-04T14:43:49.257Z,3.78
2023-03-04T14:49:05.393Z,8.18
2023-03-04T14:54:38.184Z,9.23
2023-03-04T14:59:54.487Z,15.02
2023-03-04T15:05:26.627Z,5.32
2023-03-04T15:10:42.601Z,3.55
2023-03-04T15:16:02.691Z,5.88
2023-03-04T15:21:21.463Z,7.57
2023-03-04T15:26:43.366Z,11.40
2023-03-04T15:31:59.101Z,16.90
2023-03-04T15:37:27.775Z,12.95
2023-03-04T15:42:43.793Z,11.98
2023-03-04T15:47:59.875Z,10.20
2023-03-04T15:53:39.773Z,9.50
2023-03-04T15:59:03.122Z,11.63
2023-03-04T16:04:18.864Z,7.07
2023-03-04T16:09:34.969Z,10.55
2023-03-04T16:14:51.459Z,14.43
2023-03-04T16:20:07.825Z,11.20
2023-03-04T16:25:25.806Z,10.73
2023-03-04T16:30:42.927Z,10.05
2023-03-04T16:35:59.112Z,9.85
2023-03-04T16:41:17.188Z,4.65
2023-03-04T16:46:32.934Z,8.38
2023-03-04T16:51:50.811Z,11.48
2023-03-04T16:57:06.667Z,10.43
2023-03-04T17:02:25.926Z,19.42
2023-03-04T17:07:41.773Z,24.02
2023-03-04T17:12:57.782Z,30.98
2023-03-04T17:18:13.882Z,23.02
2023-03-04T17:23:29.870Z,30.40
2023-03-04T17:28:45.361Z,24.08
2023-03-04T17:34:00.839Z,33.47
2023-03-04T17:39:16.782Z,26.55
2023-03-04T17:44:32.620Z,29.75
2023-03-04T17:49:48.796Z,22.05
2023-03-04T17:55:04.515Z,27.10
2023-03-04T18:00:21.252Z,24.75
2023-03-04T18:05:37.154Z,30.50
2023-03-04T18:10:53.619Z,19.23
2023-03-04T18:16:12.131Z,33.00
2023-03-04T18:21:29.361Z,19.38
2023-03-04T18:26:45.398Z,21.52
2023-03-04T18:32:01.511Z,20.45
2023-03-04T18:37:17.308Z,24.33
2023-03-04T18:42:32.841Z,12.65
2023-03-04T18:47:51.961Z,12.00
2023-03-04T18:53:07.517Z,24.42
2023-03-04T18:58:24.193Z,20.85
2023-03-04T19:03:42.004Z,21.17
2023-03-04T19:08:58.580Z,17.25
2023-03-04T19:14:14.395Z,22.48
2023-03-04T19:19:32.877Z,15.85
2023-03-04T19:24:48.546Z,19.88
2023-03-04T19:30:06.095Z,20.02
2023-03-04T19:35:22.090Z,22.17
2023-03-04T19:40:42.418Z,27.45
2023-03-04T19:45:58.238Z,21.92
2023-03-04T19:51:24.076Z,23.25
2023-03-04T19:56:40.171Z,19.08
2023-03-04T20:01:56.348Z,20.33
2023-03-04T20:07:12.234Z,29.10
2023-03-04T20:12:28.351Z,21.73
2023-03-04T20:17:44.544Z,19.45
2023-03-04T20:23:00.354Z,28.63
2023-03-04T20:28:16.229Z,20.40
2023-03-04T20:33:31.718Z,28.10
2023-03-04T20:38:55.784Z,27.60
2023-03-04T20:44:16.249Z,23.73
2023-03-04T20:49:31.876Z,26.25
2023-03-04T20:54:47.853Z,22.23
2023-03-04T21:00:05.548Z,36.47
2023-03-04T21:05:21.445Z,21.88
2023-03-04T21:10:36.964Z,22.38
2023-03-04T21:15:53.527Z,18.65
2023-03-04T21:21:22.433Z,23.40
2023-03-04T21:26:38.036Z,27.75
2023-03-04T21:32:09.724Z,41.90
2023-03-04T21:37:32.999Z,35.85
2023-03-04T21:42:48.543Z,46.92
2023-03-04T21:48:05.229Z,38.63
2023-03-04T21:53:23.796Z,30.45
2023-03-04T21:58:42.926Z,33.50
2023-03-04T22:03:59.116Z,26.60
2023-03-04T22:09:15.104Z,40.72
2023-03-04T22:14:32.328Z,25.60
2023-03-04T22:19:48.116Z,19.27
2023-03-04T22:25:03.775Z,22.23
2023-03-04T22:30:20.796Z,25.80
2023-03-04T22:35:40.488Z,29.27
2023-03-04T22:40:56.528Z,19.73
2023-03-04T22:46:20.716Z,18.33
2023-03-04T22:51:37.412Z,26.05
2023-03-04T22:56:53.197Z,27.38
2023-03-04T23:02:09.347Z,26.27
2023-03-04T23:07:25.050Z,18.40
2023-03-04T23:12:41.497Z,18.48
2023-03-04T23:17:57.012Z,24.73
2023-03-04T23:23:13.128Z,31.20
2023-03-04T23:28:28.943Z,25.42
2023-03-04T23:33:47.163Z,22.05
2023-03-04T23:39:04.495Z,23.80
2023-03-04T23:44:20.328Z,22.52
2023-03-04T23:49:36.452Z,19.38
2023-03-04T23:54:52.230Z,27.63
